sensor_id;sensor_type;location;lat;lon;timestamp;P1;durP1;ratioP1;P2;durP2;ratioP2
26588;SDS011;14235;48.532;8.722;2023-07-31T00:00:12;2.28;;;1.83;;
26588;SDS011;14235;48.532;8.722;2023-07-31T00:02:38;3.55;;;1.90;;
26588;SDS011;14235;48.532;8.722;2023-07-31T00:05:03;2.35;;;1.80;;
26588;SDS011;14235;48.532;8.722;2023-07-31T00:07:29;1.85;;;1.65;;
26588;SDS011;14235;48.532;8.722;2023-07-31T00:09:55;1.88;;;1.60;;
26588;SDS011;14235;48.532;8.722;2023-07-31T00:12:21;3.00;;;1.55;;
26588;SDS011;14235;48.532;8.722;2023-07-31T00:14:47;2.03;;;1.70;;
26588;SDS011;14235;48.532;8.722;2023-07-31T00:17:13;2.95;;;1.60;;
26588;SDS011;14235;48.532;8.722;2023-07-31T00:19:39;2.65;;;1.85;;
26588;SDS011;14235;48.532;8.722;2023-07-31T00:22:04;1.70;;;1.60;;
26588;SDS011;14235;48.532;8.722;2023-07-31T00:24:30;3.42;;;1.80;;
26588;SDS011;14235;48.532;8.722;2023-07-31T00:26:56;1.75;;;1.60;;
26588;SDS011;14235;48.532;8.722;2023-07-31T00:29:21;3.60;;;1.90;;
26588;SDS011;14235;48.532;8.722;2023-07-31T00:31:47;3.55;;;1.75;;
26588;SDS011;14235;48.532;8.722;2023-07-31T00:34:13;3.78;;;1.60;;
26588;SDS011;14235;48.532;8.722;2023-07-31T00:36:38;1.60;;;1.50;;
26588;SDS011;14235;48.532;8.722;2023-07-31T00:39:04;4.45;;;2.08;;
26588;SDS011;14235;48.532;8.722;2023-07-31T00:41:30;3.20;;;2.00;;
26588;SDS011;14235;48.532;8.722;2023-07-31T00:43:55;2.28;;;1.70;;
26588;SDS011;14235;48.532;8.722;2023-07-31T00:46:21;3.92;;;1.73;;
26588;SDS011;14235;48.532;8.722;2023-07-31T00:48:47;2.50;;;1.67;;
26588;SDS011;14235;48.532;8.722;2023-07-31T00:51:13;2.05;;;1.77;;
26588;SDS011;14235;48.532;8.722;2023-07-31T00:53:39;2.13;;;1.55;;
26588;SDS011;14235;48.532;8.722;2023-07-31T00:56:05;1.98;;;1.75;;
26588;SDS011;14235;48.532;8.722;2023-07-31T00:58:31;2.80;;;1.90;;
26588;SDS011;14235;48.532;8.722;2023-07-31T01:00:57;2.58;;;1.58;;
26588;SDS011;14235;48.532;8.722;2023-07-31T01:03:22;2.90;;;1.48;;
26588;SDS011;14235;48.532;8.722;2023-07-31T01:08:35;2.05;;;1.75;;
26588;SDS011;14235;48.532;8.722;2023-07-31T01:11:07;2.05;;;1.63;;
26588;SDS011;14235;48.532;8.722;2023-07-31T01:13:38;3.58;;;1.70;;
26588;SDS011;14235;48.532;8.722;2023-07-31T01:16:04;2.33;;;1.92;;
26588;SDS011;14235;48.532;8.722;2023-07-31T01:18:30;2.78;;;1.85;;
26588;SDS011;14235;48.532;8.722;2023-07-31T01:20:57;2.33;;;1.67;;
26588;SDS011;14235;48.532;8.722;2023-07-31T01:26:47;2.83;;;2.00;;
26588;SDS011;14235;48.532;8.722;2023-07-31T01:30:13;2.08;;;1.70;;
26588;SDS011;14235;48.532;8.722;2023-07-31T01:32:22;3.22;;;1.80;;
26588;SDS011;14235;48.532;8.722;2023-07-31T01:34:48;3.20;;;2.40;;
26588;SDS011;14235;48.532;8.722;2023-07-31T01:37:15;3.28;;;1.80;;
26588;SDS011;14235;48.532;8.722;2023-07-31T01:39:41;2.42;;;1.88;;
26588;SDS011;14235;48.532;8.722;2023-07-31T01:42:06;1.98;;;1.77;;
26588;SDS011;14235;48.532;8.722;2023-07-31T01:44:32;2.88;;;1.80;;
26588;SDS011;14235;48.532;8.722;2023-07-31T01:46:58;2.88;;;1.85;;
26588;SDS011;14235;48.532;8.722;2023-07-31T01:49:25;3.13;;;1.60;;
26588;SDS011;14235;48.532;8.722;2023-07-31T01:51:50;4.15;;;1.80;;
26588;SDS011;14235;48.532;8.722;2023-07-31T01:54:16;1.85;;;1.65;;
26588;SDS011;14235;48.532;8.722;2023-07-31T01:56:42;3.53;;;1.88;;
26588;SDS011;14235;48.532;8.722;2023-07-31T01:59:07;4.10;;;1.90;;
26588;SDS011;14235;48.532;8.722;2023-07-31T02:01:33;4.65;;;1.80;;
26588;SDS011;14235;48.532;8.722;2023-07-31T02:03:58;2.03;;;1.83;;
26588;SDS011;14235;48.532;8.722;2023-07-31T02:06:24;2.72;;;1.77;;
26588;SDS011;14235;48.532;8.722;2023-07-31T02:08:50;2.42;;;2.00;;
26588;SDS011;14235;48.532;8.722;2023-07-31T02:11:15;3.55;;;1.90;;
26588;SDS011;14235;48.532;8.722;2023-07-31T02:13:41;2.63;;;1.77;;
26588;SDS011;14235;48.532;8.722;2023-07-31T02:16:06;1.92;;;1.70;;
26588;SDS011;14235;48.532;8.722;2023-07-31T02:18:32;2.08;;;1.70;;
26588;SDS011;14235;48.532;8.722;2023-07-31T02:20:58;5.45;;;2.00;;
26588;SDS011;14235;48.532;8.722;2023-07-31T02:23:23;1.95;;;1.80;;
26588;SDS011;14235;48.532;8.722;2023-07-31T02:25:49;1.83;;;1.50;;
26588;SDS011;14235;48.532;8.722;2023-07-31T02:28:14;3.25;;;1.70;;
26588;SDS011;14235;48.532;8.722;2023-07-31T02:30:43;3.42;;;1.60;;
26588;SDS011;14235;48.532;8.722;2023-07-31T02:33:10;2.65;;;1.63;;
26588;SDS011;14235;48.532;8.722;2023-07-31T02:35:35;1.77;;;1.67;;
26588;SDS011;14235;48.532;8.722;2023-07-31T02:38:01;2.95;;;2.03;;
26588;SDS011;14235;48.532;8.722;2023-07-31T02:40:27;2.90;;;1.90;;
26588;SDS011;14235;48.532;8.722;2023-07-31T02:42:52;1.88;;;1.77;;
26588;SDS011;14235;48.532;8.722;2023-07-31T02:45:18;3.60;;;1.60;;
26588;SDS011;14235;48.532;8.722;2023-07-31T02:47:43;2.38;;;1.50;;
26588;SDS011;14235;48.532;8.722;2023-07-31T02:50:09;3.13;;;1.48;;
26588;SDS011;14235;48.532;8.722;2023-07-31T02:52:35;3.45;;;1.85;;
26588;SDS011;14235;48.532;8.722;2023-07-31T02:55:00;3.38;;;2.00;;
26588;SDS011;14235;48.532;8.722;2023-07-31T02:57:26;1.73;;;1.60;;
26588;SDS011;14235;48.532;8.722;2023-07-31T02:59:51;4.95;;;1.88;;
26588;SDS011;14235;48.532;8.722;2023-07-31T03:02:17;4.97;;;1.80;;
26588;SDS011;14235;48.532;8.722;2023-07-31T03:04:43;1.80;;;1.70;;
26588;SDS011;14235;48.532;8.722;2023-07-31T03:07:08;2.45;;;1.92;;
26588;SDS011;14235;48.532;8.722;2023-07-31T03:09:34;3.92;;;1.70;;
26588;SDS011;14235;48.532;8.722;2023-07-31T03:11:59;1.70;;;1.60;;
26588;SDS011;14235;48.532;8.722;2023-07-31T03:14:25;3.35;;;2.00;;
26588;SDS011;14235;48.532;8.722;2023-07-31T03:16:53;3.45;;;1.90;;
26588;SDS011;14235;48.532;8.722;2023-07-31T03:19:19;2.17;;;1.58;;
26588;SDS011;14235;48.532;8.722;2023-07-31T03:21:45;3.58;;;1.95;;
26588;SDS011;14235;48.532;8.722;2023-07-31T03:24:10;2.83;;;1.88;;
26588;SDS011;14235;48.532;8.722;2023-07-31T03:26:37;1.75;;;1.50;;
26588;SDS011;14235;48.532;8.722;2023-07-31T03:29:03;3.63;;;1.90;;
26588;SDS011;14235;48.532;8.722;2023-07-31T03:31:28;3.03;;;1.80;;
26588;SDS011;14235;48.532;8.722;2023-07-31T03:33:54;1.85;;;1.52;;
26588;SDS011;14235;48.532;8.722;2023-07-31T03:36:20;2.85;;;1.75;;
26588;SDS011;14235;48.532;8.722;2023-07-31T03:38:46;4.00;;;2.15;;
26588;SDS011;14235;48.532;8.722;2023-07-31T03:41:11;3.38;;;1.80;;
26588;SDS011;14235;48.532;8.722;2023-07-31T03:43:37;4.90;;;1.95;;
26588;SDS011;14235;48.532;8.722;2023-07-31T03:46:03;2.08;;;1.80;;
26588;SDS011;14235;48.532;8.722;2023-07-31T03:48:30;3.47;;;2.03;;
26588;SDS011;14235;48.532;8.722;2023-07-31T03:50:55;2.15;;;2.00;;
26588;SDS011;14235;48.532;8.722;2023-07-31T03:53:21;2.05;;;1.80;;
26588;SDS011;14235;48.532;8.722;2023-07-31T03:55:46;3.80;;;1.83;;
26588;SDS011;14235;48.532;8.722;2023-07-31T03:58:12;2.28;;;1.73;;
26588;SDS011;14235;48.532;8.722;2023-07-31T04:00:40;5.47;;;2.10;;
26588;SDS011;14235;48.532;8.722;2023-07-31T04:03:05;3.88;;;1.60;;
26588;SDS011;14235;48.532;8.722;2023-07-31T04:05:32;2.95;;;1.88;;
26588;SDS011;14235;48.532;8.722;2023-07-31T04:07:58;4.45;;;2.05;;
26588;SDS011;14235;48.532;8.722;2023-07-31T04:10:23;2.72;;;1.75;;
26588;SDS011;14235;48.532;8.722;2023-07-31T04:12:49;3.35;;;1.90;;
26588;SDS011;14235;48.532;8.722;2023-07-31T04:15:14;2.10;;;1.95;;
26588;SDS011;14235;48.532;8.722;2023-07-31T04:17:40;2.97;;;1.95;;
26588;SDS011;14235;48.532;8.722;2023-07-31T04:20:06;2.42;;;2.22;;
26588;SDS011;14235;48.532;8.722;2023-07-31T04:22:32;3.03;;;1.95;;
26588;SDS011;14235;48.532;8.722;2023-07-31T04:24:57;1.80;;;1.70;;
26588;SDS011;14235;48.532;8.722;2023-07-31T04:27:23;3.80;;;2.00;;
26588;SDS011;14235;48.532;8.722;2023-07-31T04:29:48;2.30;;;2.10;;
26588;SDS011;14235;48.532;8.722;2023-07-31T04:32:14;3.47;;;1.85;;
26588;SDS011;14235;48.532;8.722;2023-07-31T04:34:43;1.95;;;1.75;;
26588;SDS011;14235;48.532;8.722;2023-07-31T04:37:08;2.08;;;1.98;;
26588;SDS011;14235;48.532;8.722;2023-07-31T04:39:34;4.03;;;1.75;;
26588;SDS011;14235;48.532;8.722;2023-07-31T04:42:00;2.03;;;1.60;;
26588;SDS011;14235;48.532;8.722;2023-07-31T04:44:25;1.80;;;1.70;;
26588;SDS011;14235;48.532;8.722;2023-07-31T04:46:51;1.75;;;1.63;;
26588;SDS011;14235;48.532;8.722;2023-07-31T04:49:16;2.92;;;1.92;;
26588;SDS011;14235;48.532;8.722;2023-07-31T04:51:42;2.58;;;1.90;;
26588;SDS011;14235;48.532;8.722;2023-07-31T04:54:08;3.70;;;1.95;;
26588;SDS011;14235;48.532;8.722;2023-07-31T04:56:33;3.53;;;2.20;;
26588;SDS011;14235;48.532;8.722;2023-07-31T04:58:59;2.22;;;2.03;;
26588;SDS011;14235;48.532;8.722;2023-07-31T05:01:24;1.98;;;1.75;;
26588;SDS011;14235;48.532;8.722;2023-07-31T05:03:50;5.18;;;2.13;;
26588;SDS011;14235;48.532;8.722;2023-07-31T05:06:16;2.13;;;1.92;;
26588;SDS011;14235;48.532;8.722;2023-07-31T05:08:41;4.95;;;2.00;;
26588;SDS011;14235;48.532;8.722;2023-07-31T05:11:07;2.03;;;1.90;;
26588;SDS011;14235;48.532;8.722;2023-07-31T05:13:32;2.38;;;1.80;;
26588;SDS011;14235;48.532;8.722;2023-07-31T05:15:58;2.13;;;1.92;;
26588;SDS011;14235;48.532;8.722;2023-07-31T05:18:24;5.38;;;2.17;;
26588;SDS011;14235;48.532;8.722;2023-07-31T05:20:49;3.50;;;1.98;;
26588;SDS011;14235;48.532;8.722;2023-07-31T05:23:15;3.50;;;2.42;;
26588;SDS011;14235;48.532;8.722;2023-07-31T05:25:40;3.65;;;2.00;;
26588;SDS011;14235;48.532;8.722;2023-07-31T05:28:06;4.28;;;2.45;;
26588;SDS011;14235;48.532;8.722;2023-07-31T05:30:31;2.95;;;2.33;;
26588;SDS011;14235;48.532;8.722;2023-07-31T05:32:57;1.95;;;1.85;;
26588;SDS011;14235;48.532;8.722;2023-07-31T05:35:23;2.55;;;1.85;;
26588;SDS011;14235;48.532;8.722;2023-07-31T05:37:48;5.20;;;2.20;;
26588;SDS011;14235;48.532;8.722;2023-07-31T05:40:14;3.60;;;2.15;;
26588;SDS011;14235;48.532;8.722;2023-07-31T05:42:40;2.92;;;2.10;;
26588;SDS011;14235;48.532;8.722;2023-07-31T05:45:06;2.22;;;2.00;;
26588;SDS011;14235;48.532;8.722;2023-07-31T05:47:32;3.85;;;1.75;;
26588;SDS011;14235;48.532;8.722;2023-07-31T05:49:58;4.53;;;2.08;;
26588;SDS011;14235;48.532;8.722;2023-07-31T05:52:23;3.35;;;2.40;;
26588;SDS011;14235;48.532;8.722;2023-07-31T05:54:49;3.10;;;2.40;;
26588;SDS011;14235;48.532;8.722;2023-07-31T05:57:15;2.88;;;2.10;;
26588;SDS011;14235;48.532;8.722;2023-07-31T05:59:41;2.10;;;1.90;;
26588;SDS011;14235;48.532;8.722;2023-07-31T06:02:06;2.95;;;2.05;;
26588;SDS011;14235;48.532;8.722;2023-07-31T06:04:32;3.85;;;1.90;;
26588;SDS011;14235;48.532;8.722;2023-07-31T06:06:57;1.77;;;1.67;;
26588;SDS011;14235;48.532;8.722;2023-07-31T06:09:23;1.88;;;1.73;;
26588;SDS011;14235;48.532;8.722;2023-07-31T06:11:50;2.60;;;2.22;;
26588;SDS011;14235;48.532;8.722;2023-07-31T06:14:15;2.67;;;1.80;;
26588;SDS011;14235;48.532;8.722;2023-07-31T06:16:41;3.05;;;2.30;;
26588;SDS011;14235;48.532;8.722;2023-07-31T06:19:07;2.45;;;1.90;;
26588;SDS011;14235;48.532;8.722;2023-07-31T06:21:32;2.72;;;1.92;;
26588;SDS011;14235;48.532;8.722;2023-07-31T06:23:58;2.15;;;1.73;;
26588;SDS011;14235;48.532;8.722;2023-07-31T06:26:24;4.35;;;2.22;;
26588;SDS011;14235;48.532;8.722;2023-07-31T06:28:49;1.85;;;1.75;;
26588;SDS011;14235;48.532;8.722;2023-07-31T06:31:15;2.53;;;1.98;;
26588;SDS011;14235;48.532;8.722;2023-07-31T06:33:43;4.80;;;2.15;;
26588;SDS011;14235;48.532;8.722;2023-07-31T06:36:08;3.58;;;2.15;;
26588;SDS011;14235;48.532;8.722;2023-07-31T06:38:34;3.35;;;2.33;;
26588;SDS011;14235;48.532;8.722;2023-07-31T06:40:59;2.70;;;1.80;;
26588;SDS011;14235;48.532;8.722;2023-07-31T06:43:25;3.45;;;2.00;;
26588;SDS011;14235;48.532;8.722;2023-07-31T06:45:50;3.15;;;2.30;;
26588;SDS011;14235;48.532;8.722;2023-07-31T06:48:16;3.03;;;2.00;;
26588;SDS011;14235;48.532;8.722;2023-07-31T06:50:42;2.88;;;1.92;;
26588;SDS011;14235;48.532;8.722;2023-07-31T06:53:07;3.67;;;2.05;;
26588;SDS011;14235;48.532;8.722;2023-07-31T06:55:33;4.60;;;1.83;;
26588;SDS011;14235;48.532;8.722;2023-07-31T06:57:58;3.40;;;1.90;;
26588;SDS011;14235;48.532;8.722;2023-07-31T07:00:24;5.80;;;2.20;;
26588;SDS011;14235;48.532;8.722;2023-07-31T07:02:50;3.88;;;1.98;;
26588;SDS011;14235;48.532;8.722;2023-07-31T07:05:16;3.50;;;1.95;;
26588;SDS011;14235;48.532;8.722;2023-07-31T07:07:42;3.08;;;2.08;;
26588;SDS011;14235;48.532;8.722;2023-07-31T07:10:08;3.72;;;2.20;;
26588;SDS011;14235;48.532;8.722;2023-07-31T07:12:34;1.98;;;1.83;;
26588;SDS011;14235;48.532;8.722;2023-07-31T07:15:01;3.92;;;2.50;;
26588;SDS011;14235;48.532;8.722;2023-07-31T07:17:27;3.30;;;2.10;;
26588;SDS011;14235;48.532;8.722;2023-07-31T07:19:56;3.58;;;2.17;;
26588;SDS011;14235;48.532;8.722;2023-07-31T07:22:22;3.53;;;2.03;;
26588;SDS011;14235;48.532;8.722;2023-07-31T07:24:47;4.45;;;2.22;;
26588;SDS011;14235;48.532;8.722;2023-07-31T07:27:13;7.57;;;2.15;;
26588;SDS011;14235;48.532;8.722;2023-07-31T07:29:39;2.38;;;2.10;;
26588;SDS011;14235;48.532;8.722;2023-07-31T07:32:05;3.70;;;2.13;;
26588;SDS011;14235;48.532;8.722;2023-07-31T07:34:31;3.97;;;2.10;;
26588;SDS011;14235;48.532;8.722;2023-07-31T07:36:56;3.13;;;2.28;;
26588;SDS011;14235;48.532;8.722;2023-07-31T07:39:22;2.40;;;2.20;;
26588;SDS011;14235;48.532;8.722;2023-07-31T07:41:47;3.78;;;2.20;;
26588;SDS011;14235;48.532;8.722;2023-07-31T07:44:14;3.28;;;2.15;;
26588;SDS011;14235;48.532;8.722;2023-07-31T07:46:39;3.42;;;2.20;;
26588;SDS011;14235;48.532;8.722;2023-07-31T07:49:05;4.05;;;2.03;;
26588;SDS011;14235;48.532;8.722;2023-07-31T07:51:31;4.35;;;1.90;;
26588;SDS011;14235;48.532;8.722;2023-07-31T07:53:59;3.53;;;2.25;;
26588;SDS011;14235;48.532;8.722;2023-07-31T07:56:26;3.72;;;2.08;;
26588;SDS011;14235;48.532;8.722;2023-07-31T07:58:52;2.75;;;1.90;;
26588;SDS011;14235;48.532;8.722;2023-07-31T08:01:18;3.88;;;2.00;;
26588;SDS011;14235;48.532;8.722;2023-07-31T08:03:44;3.40;;;2.00;;
26588;SDS011;14235;48.532;8.722;2023-07-31T08:06:10;3.20;;;2.00;;
26588;SDS011;14235;48.532;8.722;2023-07-31T08:08:36;3.15;;;1.98;;
26588;SDS011;14235;48.532;8.722;2023-07-31T08:11:02;2.58;;;2.05;;
26588;SDS011;14235;48.532;8.722;2023-07-31T08:13:28;2.20;;;2.00;;
26588;SDS011;14235;48.532;8.722;2023-07-31T08:15:53;2.40;;;2.20;;
26588;SDS011;14235;48.532;8.722;2023-07-31T08:18:19;5.63;;;2.38;;
26588;SDS011;14235;48.532;8.722;2023-07-31T08:20:45;4.82;;;2.55;;
26588;SDS011;14235;48.532;8.722;2023-07-31T08:23:10;3.85;;;2.25;;
26588;SDS011;14235;48.532;8.722;2023-07-31T08:25:36;5.50;;;2.33;;
26588;SDS011;14235;48.532;8.722;2023-07-31T08:28:05;4.72;;;2.42;;
26588;SDS011;14235;48.532;8.722;2023-07-31T08:30:31;3.40;;;2.22;;
26588;SDS011;14235;48.532;8.722;2023-07-31T08:32:58;3.88;;;2.03;;
26588;SDS011;14235;48.532;8.722;2023-07-31T08:35:24;3.67;;;2.30;;
26588;SDS011;14235;48.532;8.722;2023-07-31T08:37:51;4.20;;;2.38;;
26588;SDS011;14235;48.532;8.722;2023-07-31T08:40:16;3.42;;;2.22;;
26588;SDS011;14235;48.532;8.722;2023-07-31T08:42:43;2.97;;;2.15;;
26588;SDS011;14235;48.532;8.722;2023-07-31T08:45:10;4.13;;;2.03;;
26588;SDS011;14235;48.532;8.722;2023-07-31T08:47:39;5.57;;;2.38;;
26588;SDS011;14235;48.532;8.722;2023-07-31T08:50:07;4.40;;;2.47;;
26588;SDS011;14235;48.532;8.722;2023-07-31T08:52:33;4.15;;;2.20;;
26588;SDS011;14235;48.532;8.722;2023-07-31T08:54:59;3.85;;;2.50;;
26588;SDS011;14235;48.532;8.722;2023-07-31T08:57:24;5.03;;;2.28;;
26588;SDS011;14235;48.532;8.722;2023-07-31T08:59:50;4.97;;;2.55;;
26588;SDS011;14235;48.532;8.722;2023-07-31T09:02:17;3.50;;;2.45;;
26588;SDS011;14235;48.532;8.722;2023-07-31T09:04:44;4.65;;;2.72;;
26588;SDS011;14235;48.532;8.722;2023-07-31T09:07:10;5.20;;;2.83;;
26588;SDS011;14235;48.532;8.722;2023-07-31T09:09:38;3.42;;;2.30;;
26588;SDS011;14235;48.532;8.722;2023-07-31T09:12:04;6.05;;;2.45;;
26588;SDS011;14235;48.532;8.722;2023-07-31T09:14:30;2.85;;;2.30;;
26588;SDS011;14235;48.532;8.722;2023-07-31T09:16:56;4.97;;;2.55;;
26588;SDS011;14235;48.532;8.722;2023-07-31T09:19:34;4.15;;;2.70;;
26588;SDS011;14235;48.532;8.722;2023-07-31T09:22:04;3.08;;;2.25;;
26588;SDS011;14235;48.532;8.722;2023-07-31T09:24:31;5.13;;;2.60;;
26588;SDS011;14235;48.532;8.722;2023-07-31T09:26:58;4.47;;;2.83;;
26588;SDS011;14235;48.532;8.722;2023-07-31T09:29:25;3.70;;;2.42;;
26588;SDS011;14235;48.532;8.722;2023-07-31T09:31:52;3.83;;;2.10;;
26588;SDS011;14235;48.532;8.722;2023-07-31T09:34:18;6.53;;;2.40;;
26588;SDS011;14235;48.532;8.722;2023-07-31T09:36:48;3.10;;;2.33;;
26588;SDS011;14235;48.532;8.722;2023-07-31T09:39:15;5.22;;;2.60;;
26588;SDS011;14235;48.532;8.722;2023-07-31T09:41:43;5.18;;;2.80;;
26588;SDS011;14235;48.532;8.722;2023-07-31T09:44:13;3.42;;;2.40;;
26588;SDS011;14235;48.532;8.722;2023-07-31T09:46:39;2.35;;;2.13;;
26588;SDS011;14235;48.532;8.722;2023-07-31T09:51:41;4.15;;;2.47;;
26588;SDS011;14235;48.532;8.722;2023-07-31T09:54:11;4.38;;;2.63;;
26588;SDS011;14235;48.532;8.722;2023-07-31T09:56:41;5.57;;;3.03;;
26588;SDS011;14235;48.532;8.722;2023-07-31T09:59:11;3.17;;;2.22;;
26588;SDS011;14235;48.532;8.722;2023-07-31T10:01:39;4.25;;;2.85;;
26588;SDS011;14235;48.532;8.722;2023-07-31T10:04:07;3.55;;;2.40;;
26588;SDS011;14235;48.532;8.722;2023-07-31T10:06:34;4.82;;;2.55;;
26588;SDS011;14235;48.532;8.722;2023-07-31T10:09:01;4.20;;;3.00;;
26588;SDS011;14235;48.532;8.722;2023-07-31T10:11:30;3.28;;;2.50;;
26588;SDS011;14235;48.532;8.722;2023-07-31T10:14:02;5.13;;;2.47;;
26588;SDS011;14235;48.532;8.722;2023-07-31T10:16:30;3.15;;;2.30;;
26588;SDS011;14235;48.532;8.722;2023-07-31T10:18:57;3.42;;;2.20;;
26588;SDS011;14235;48.532;8.722;2023-07-31T10:21:23;3.95;;;2.55;;
26588;SDS011;14235;48.532;8.722;2023-07-31T10:23:49;3.10;;;2.13;;
26588;SDS011;14235;48.532;8.722;2023-07-31T10:26:16;2.42;;;2.22;;
26588;SDS011;14235;48.532;8.722;2023-07-31T10:28:43;3.85;;;2.20;;
26588;SDS011;14235;48.532;8.722;2023-07-31T10:31:11;4.43;;;2.42;;
26588;SDS011;14235;48.532;8.722;2023-07-31T10:33:38;4.85;;;2.58;;
26588;SDS011;14235;48.532;8.722;2023-07-31T10:36:14;3.85;;;2.40;;
26588;SDS011;14235;48.532;8.722;2023-07-31T10:38:43;5.35;;;2.70;;
26588;SDS011;14235;48.532;8.722;2023-07-31T10:41:08;3.63;;;2.50;;
26588;SDS011;14235;48.532;8.722;2023-07-31T10:43:36;4.03;;;2.60;;
26588;SDS011;14235;48.532;8.722;2023-07-31T10:46:09;5.22;;;2.72;;
26588;SDS011;14235;48.532;8.722;2023-07-31T10:48:38;5.88;;;2.50;;
26588;SDS011;14235;48.532;8.722;2023-07-31T10:51:10;2.88;;;2.22;;
26588;SDS011;14235;48.532;8.722;2023-07-31T10:53:37;2.58;;;2.30;;
26588;SDS011;14235;48.532;8.722;2023-07-31T10:56:05;5.65;;;2.47;;
26588;SDS011;14235;48.532;8.722;2023-07-31T10:58:35;5.20;;;2.55;;
26588;SDS011;14235;48.532;8.722;2023-07-31T11:01:02;3.67;;;2.30;;
26588;SDS011;14235;48.532;8.722;2023-07-31T11:03:48;3.75;;;2.35;;
26588;SDS011;14235;48.532;8.722;2023-07-31T11:06:17;4.05;;;2.47;;
26588;SDS011;14235;48.532;8.722;2023-07-31T11:08:46;3.40;;;2.30;;
26588;SDS011;14235;48.532;8.722;2023-07-31T11:11:17;5.35;;;2.47;;
26588;SDS011;14235;48.532;8.722;2023-07-31T11:13:48;4.70;;;2.55;;
26588;SDS011;14235;48.532;8.722;2023-07-31T11:16:18;3.15;;;2.22;;
26588;SDS011;14235;48.532;8.722;2023-07-31T11:18:48;3.55;;;2.80;;
26588;SDS011;14235;48.532;8.722;2023-07-31T11:21:17;4.15;;;2.65;;
26588;SDS011;14235;48.532;8.722;2023-07-31T11:23:47;2.13;;;1.92;;
26588;SDS011;14235;48.532;8.722;2023-07-31T11:26:14;5.43;;;2.50;;
26588;SDS011;14235;48.532;8.722;2023-07-31T11:28:40;4.00;;;2.63;;
26588;SDS011;14235;48.532;8.722;2023-07-31T11:31:09;5.43;;;2.75;;
26588;SDS011;14235;48.532;8.722;2023-07-31T11:33:35;5.72;;;2.88;;
26588;SDS011;14235;48.532;8.722;2023-07-31T11:36:01;4.82;;;2.78;;
26588;SDS011;14235;48.532;8.722;2023-07-31T11:38:28;3.65;;;2.53;;
26588;SDS011;14235;48.532;8.722;2023-07-31T11:40:55;4.43;;;2.42;;
26588;SDS011;14235;48.532;8.722;2023-07-31T11:43:26;3.85;;;2.75;;
26588;SDS011;14235;48.532;8.722;2023-07-31T11:45:52;4.30;;;2.67;;
26588;SDS011;14235;48.532;8.722;2023-07-31T11:48:23;3.35;;;2.63;;
26588;SDS011;14235;48.532;8.722;2023-07-31T11:50:51;3.30;;;2.28;;
26588;SDS011;14235;48.532;8.722;2023-07-31T11:53:19;6.82;;;2.58;;
26588;SDS011;14235;48.532;8.722;2023-07-31T11:55:53;2.83;;;2.58;;
26588;SDS011;14235;48.532;8.722;2023-07-31T11:58:20;3.30;;;2.70;;
26588;SDS011;14235;48.532;8.722;2023-07-31T12:00:46;3.22;;;2.60;;
26588;SDS011;14235;48.532;8.722;2023-07-31T12:03:13;3.80;;;2.92;;
26588;SDS011;14235;48.532;8.722;2023-07-31T12:05:39;6.40;;;2.67;;
26588;SDS011;14235;48.532;8.722;2023-07-31T12:08:11;3.00;;;2.53;;
26588;SDS011;14235;48.532;8.722;2023-07-31T12:10:37;4.22;;;2.30;;
26588;SDS011;14235;48.532;8.722;2023-07-31T12:13:05;4.93;;;3.00;;
26588;SDS011;14235;48.532;8.722;2023-07-31T12:15:33;4.15;;;2.80;;
26588;SDS011;14235;48.532;8.722;2023-07-31T12:18:03;3.25;;;2.80;;
26588;SDS011;14235;48.532;8.722;2023-07-31T12:20:29;5.20;;;2.90;;
26588;SDS011;14235;48.532;8.722;2023-07-31T12:22:56;3.58;;;2.70;;
26588;SDS011;14235;48.532;8.722;2023-07-31T12:25:23;5.07;;;2.75;;
26588;SDS011;14235;48.532;8.722;2023-07-31T12:27:53;4.03;;;2.60;;
26588;SDS011;14235;48.532;8.722;2023-07-31T12:30:29;2.75;;;2.35;;
26588;SDS011;14235;48.532;8.722;2023-07-31T12:32:57;3.53;;;2.75;;
26588;SDS011;14235;48.532;8.722;2023-07-31T12:35:22;7.20;;;2.60;;
26588;SDS011;14235;48.532;8.722;2023-07-31T12:37:48;4.72;;;2.97;;
26588;SDS011;14235;48.532;8.722;2023-07-31T12:40:14;2.85;;;2.58;;
26588;SDS011;14235;48.532;8.722;2023-07-31T12:42:40;4.25;;;2.85;;
26588;SDS011;14235;48.532;8.722;2023-07-31T12:45:06;3.13;;;2.30;;
26588;SDS011;14235;48.532;8.722;2023-07-31T12:47:32;5.97;;;2.65;;
26588;SDS011;14235;48.532;8.722;2023-07-31T12:49:58;2.85;;;2.35;;
26588;SDS011;14235;48.532;8.722;2023-07-31T12:52:24;4.28;;;2.40;;
26588;SDS011;14235;48.532;8.722;2023-07-31T12:54:49;6.20;;;2.80;;
26588;SDS011;14235;48.532;8.722;2023-07-31T12:57:15;4.45;;;2.70;;
26588;SDS011;14235;48.532;8.722;2023-07-31T12:59:40;2.97;;;2.30;;
26588;SDS011;14235;48.532;8.722;2023-07-31T13:02:06;3.47;;;2.67;;
26588;SDS011;14235;48.532;8.722;2023-07-31T13:04:32;4.82;;;2.53;;
26588;SDS011;14235;48.532;8.722;2023-07-31T13:06:57;2.88;;;2.42;;
26588;SDS011;14235;48.532;8.722;2023-07-31T13:09:23;4.70;;;2.85;;
26588;SDS011;14235;48.532;8.722;2023-07-31T13:11:48;4.00;;;2.53;;
26588;SDS011;14235;48.532;8.722;2023-07-31T13:14:14;3.63;;;2.85;;
26588;SDS011;14235;48.532;8.722;2023-07-31T13:16:40;3.10;;;2.78;;
26588;SDS011;14235;48.532;8.722;2023-07-31T13:19:05;5.60;;;2.85;;
26588;SDS011;14235;48.532;8.722;2023-07-31T13:21:31;2.70;;;2.50;;
26588;SDS011;14235;48.532;8.722;2023-07-31T13:24:01;5.15;;;2.90;;
26588;SDS011;14235;48.532;8.722;2023-07-31T13:26:27;2.72;;;2.53;;
26588;SDS011;14235;48.532;8.722;2023-07-31T13:28:53;3.58;;;2.92;;
26588;SDS011;14235;48.532;8.722;2023-07-31T13:31:18;3.13;;;2.60;;
26588;SDS011;14235;48.532;8.722;2023-07-31T13:33:44;3.80;;;2.78;;
26588;SDS011;14235;48.532;8.722;2023-07-31T13:36:09;3.65;;;2.63;;
26588;SDS011;14235;48.532;8.722;2023-07-31T13:38:36;4.80;;;2.72;;
26588;SDS011;14235;48.532;8.722;2023-07-31T13:41:01;2.47;;;2.10;;
26588;SDS011;14235;48.532;8.722;2023-07-31T13:43:27;5.40;;;2.80;;
26588;SDS011;14235;48.532;8.722;2023-07-31T13:45:52;2.70;;;2.50;;
26588;SDS011;14235;48.532;8.722;2023-07-31T13:48:18;4.50;;;3.10;;
26588;SDS011;14235;48.532;8.722;2023-07-31T13:50:43;3.25;;;2.30;;
26588;SDS011;14235;48.532;8.722;2023-07-31T13:53:09;2.90;;;2.38;;
26588;SDS011;14235;48.532;8.722;2023-07-31T13:55:34;2.78;;;2.58;;
26588;SDS011;14235;48.532;8.722;2023-07-31T13:58:00;3.70;;;3.30;;
26588;SDS011;14235;48.532;8.722;2023-07-31T14:00:26;2.90;;;2.47;;
26588;SDS011;14235;48.532;8.722;2023-07-31T14:02:53;4.47;;;2.97;;
26588;SDS011;14235;48.532;8.722;2023-07-31T14:05:19;4.95;;;2.80;;
26588;SDS011;14235;48.532;8.722;2023-07-31T14:07:44;3.72;;;2.65;;
26588;SDS011;14235;48.532;8.722;2023-07-31T14:10:10;6.55;;;2.92;;
26588;SDS011;14235;48.532;8.722;2023-07-31T14:12:36;3.10;;;2.40;;
26588;SDS011;14235;48.532;8.722;2023-07-31T14:15:01;2.90;;;2.65;;
26588;SDS011;14235;48.532;8.722;2023-07-31T14:17:27;4.00;;;2.90;;
26588;SDS011;14235;48.532;8.722;2023-07-31T14:19:53;3.10;;;2.58;;
26588;SDS011;14235;48.532;8.722;2023-07-31T14:22:29;3.22;;;2.80;;
26588;SDS011;14235;48.532;8.722;2023-07-31T14:24:55;4.03;;;2.88;;
26588;SDS011;14235;48.532;8.722;2023-07-31T14:27:20;4.22;;;2.80;;
26588;SDS011;14235;48.532;8.722;2023-07-31T14:29:46;2.88;;;2.40;;
26588;SDS011;14235;48.532;8.722;2023-07-31T14:32:11;4.22;;;2.40;;
26588;SDS011;14235;48.532;8.722;2023-07-31T14:34:37;2.95;;;2.65;;
26588;SDS011;14235;48.532;8.722;2023-07-31T14:37:02;6.43;;;2.92;;
26588;SDS011;14235;48.532;8.722;2023-07-31T14:39:28;5.13;;;2.75;;
26588;SDS011;14235;48.532;8.722;2023-07-31T14:41:54;4.65;;;2.80;;
26588;SDS011;14235;48.532;8.722;2023-07-31T14:44:19;3.30;;;3.00;;
26588;SDS011;14235;48.532;8.722;2023-07-31T14:46:45;2.70;;;2.50;;
26588;SDS011;14235;48.532;8.722;2023-07-31T14:49:11;2.80;;;2.60;;
26588;SDS011;14235;48.532;8.722;2023-07-31T14:51:36;4.00;;;2.67;;